sensor_id;sensor_type;location;lat;lon;timestamp;pressure;altitude;pressure_sealevel;temperature;humidity
21623;BME280;10973;46.706;12.340;2023-04-27T00:00:21;87227.25;;;8.70;48.93
21623;BME280;10973;46.706;12.340;2023-04-27T00:02:49;87228.72;;;8.67;48.96
21623;BME280;10973;46.706;12.340;2023-04-27T00:05:17;87230.97;;;8.65;48.93
21623;BME280;10973;46.706;12.340;2023-04-27T00:51:41;87215.03;;;8.47;49.92
21623;BME280;10973;46.706;12.340;2023-04-27T00:54:10;87219.94;;;8.49;50.13
21623;BME280;10973;46.706;12.340;2023-04-27T00:56:38;87224.44;;;8.48;50.36
21623;BME280;10973;46.706;12.340;2023-04-27T00:59:06;87221.09;;;8.51;50.40
21623;BME280;10973;46.706;12.340;2023-04-27T01:01:33;87215.44;;;8.49;50.49
21623;BME280;10973;46.706;12.340;2023-04-27T01:04:01;87213.56;;;8.50;50.75
21623;BME280;10973;46.706;12.340;2023-04-27T01:06:29;87218.78;;;8.46;50.54
21623;BME280;10973;46.706;12.340;2023-04-27T01:08:57;87216.16;;;8.46;50.45
21623;BME280;10973;46.706;12.340;2023-04-27T01:11:25;87215.78;;;8.44;50.54
21623;BME280;10973;46.706;12.340;2023-04-27T01:13:53;87215.78;;;8.44;50.49
21623;BME280;10973;46.706;12.340;2023-04-27T01:16:21;87212.00;;;8.42;50.71
21623;BME280;10973;46.706;12.340;2023-04-27T01:18:49;87216.88;;;8.43;50.93
21623;BME280;10973;46.706;12.340;2023-04-27T01:21:17;87220.19;;;8.37;50.82
21623;BME280;10973;46.706;12.340;2023-04-27T01:23:45;87223.19;;;8.39;51.03
21623;BME280;10973;46.706;12.340;2023-04-27T01:26:13;87223.56;;;8.37;51.08
21623;BME280;10973;46.706;12.340;2023-04-27T01:28:43;87228.03;;;8.33;51.10
21623;BME280;10973;46.706;12.340;2023-04-27T01:31:11;87223.53;;;8.34;51.18
21623;BME280;10973;46.706;12.340;2023-04-27T01:33:40;87223.09;;;8.28;51.24
21623;BME280;10973;46.706;12.340;2023-04-27T01:36:08;87223.09;;;8.28;51.55
21623;BME280;10973;46.706;12.340;2023-04-27T01:38:36;87224.97;;;8.28;51.35
21623;BME280;10973;46.706;12.340;2023-04-27T01:41:04;87221.16;;;8.25;51.50
21623;BME280;10973;46.706;12.340;2023-04-27T01:43:32;87226.78;;;8.24;51.48
21623;BME280;10973;46.706;12.340;2023-04-27T01:46:07;87244.38;;;8.20;51.36
21623;BME280;10973;46.706;12.340;2023-04-27T01:48:35;87231.97;;;8.20;51.49
21623;BME280;10973;46.706;12.340;2023-04-27T01:51:04;87230.13;;;8.21;51.53
21623;BME280;10973;46.706;12.340;2023-04-27T01:53:32;87235.72;;;8.19;51.38
21623;BME280;10973;46.706;12.340;2023-04-27T01:56:00;87231.91;;;8.13;51.64
21623;BME280;10973;46.706;12.340;2023-04-27T01:58:28;87234.50;;;8.10;51.90
21623;BME280;10973;46.706;12.340;2023-04-27T02:00:55;87233.41;;;8.11;51.63
21623;BME280;10973;46.706;12.340;2023-04-27T02:03:23;87223.59;;;8.08;51.74
21623;BME280;10973;46.706;12.340;2023-04-27T02:05:51;87228.84;;;8.08;51.69
21623;BME280;10973;46.706;12.340;2023-04-27T02:08:18;87232.25;;;8.08;51.51
21623;BME280;10973;46.706;12.340;2023-04-27T02:10:46;87232.97;;;8.09;51.54
21623;BME280;10973;46.706;12.340;2023-04-27T02:13:13;87235.97;;;8.07;51.54
21623;BME280;10973;46.706;12.340;2023-04-27T02:15:41;87229.94;;;8.07;51.46
21623;BME280;10973;46.706;12.340;2023-04-27T02:18:09;87235.56;;;8.05;51.56
21623;BME280;10973;46.706;12.340;2023-04-27T02:20:37;87244.50;;;8.01;51.86
21623;BME280;10973;46.706;12.340;2023-04-27T02:23:04;87237.00;;;7.99;51.88
21623;BME280;10973;46.706;12.340;2023-04-27T02:25:34;87247.09;;;7.97;51.65
21623;BME280;10973;46.706;12.340;2023-04-27T02:28:02;87237.34;;;7.98;51.68
21623;BME280;10973;46.706;12.340;2023-04-27T02:30:30;87236.19;;;7.95;51.86
21623;BME280;10973;46.706;12.340;2023-04-27T02:32:59;87236.94;;;7.96;51.95
21623;BME280;10973;46.706;12.340;2023-04-27T02:35:27;87232.06;;;7.94;51.98
21623;BME280;10973;46.706;12.340;2023-04-27T02:37:54;87241.81;;;7.93;52.25
21623;BME280;10973;46.706;12.340;2023-04-27T02:40:22;87232.84;;;7.95;52.38
21623;BME280;10973;46.706;12.340;2023-04-27T02:42:49;87233.91;;;7.90;52.44
21623;BME280;10973;46.706;12.340;2023-04-27T02:45:17;87238.69;;;7.84;52.80
21623;BME280;10973;46.706;12.340;2023-04-27T02:47:45;87237.94;;;7.84;52.65
21623;BME280;10973;46.706;12.340;2023-04-27T02:50:12;87246.56;;;7.84;52.46
21623;BME280;10973;46.706;12.340;2023-04-27T02:52:40;87248.03;;;7.82;52.51
21623;BME280;10973;46.706;12.340;2023-04-27T02:55:08;87251.06;;;7.84;52.52
21623;BME280;10973;46.706;12.340;2023-04-27T02:57:35;87250.66;;;7.82;52.71
21623;BME280;10973;46.706;12.340;2023-04-27T03:00:04;87251.78;;;7.81;52.59
21623;BME280;10973;46.706;12.340;2023-04-27T03:02:31;87247.25;;;7.78;52.98
21623;BME280;10973;46.706;12.340;2023-04-27T03:04:59;87246.88;;;7.79;52.44
21623;BME280;10973;46.706;12.340;2023-04-27T03:07:27;87230.41;;;7.79;52.69
21623;BME280;10973;46.706;12.340;2023-04-27T03:09:54;87233.06;;;7.82;52.70
21623;BME280;10973;46.706;12.340;2023-04-27T03:12:22;87236.78;;;7.81;52.89
21623;BME280;10973;46.706;12.340;2023-04-27T03:14:50;87241.28;;;7.81;52.69
21623;BME280;10973;46.706;12.340;2023-04-27T03:17:17;87242.75;;;7.78;52.56
21623;BME280;10973;46.706;12.340;2023-04-27T03:19:46;87243.81;;;7.74;52.49
21623;BME280;10973;46.706;12.340;2023-04-27T03:22:14;87251.59;;;7.67;52.73
21623;BME280;10973;46.706;12.340;2023-04-27T03:24:42;87245.59;;;7.66;52.67
21623;BME280;10973;46.706;12.340;2023-04-27T03:27:10;87254.91;;;7.64;52.75
21623;BME280;10973;46.706;12.340;2023-04-27T03:29:37;87249.66;;;7.60;52.74
21623;BME280;10973;46.706;12.340;2023-04-27T03:32:06;87251.41;;;7.53;52.72
21623;BME280;10973;46.706;12.340;2023-04-27T03:34:34;87258.88;;;7.51;52.81
21623;BME280;10973;46.706;12.340;2023-04-27T03:37:02;87257.72;;;7.48;53.05
21623;BME280;10973;46.706;12.340;2023-04-27T03:39:29;87261.78;;;7.46;52.99
21623;BME280;10973;46.706;12.340;2023-04-27T03:41:57;87260.31;;;7.45;52.97
21623;BME280;10973;46.706;12.340;2023-04-27T03:44:24;87263.25;;;7.43;52.90
21623;BME280;10973;46.706;12.340;2023-04-27T03:46:52;87269.88;;;7.34;53.01
21623;BME280;10973;46.706;12.340;2023-04-27T03:49:21;87276.63;;;7.35;52.89
21623;BME280;10973;46.706;12.340;2023-04-27T03:51:48;87266.09;;;7.31;53.03
21623;BME280;10973;46.706;12.340;2023-04-27T03:54:16;87269.38;;;7.25;52.86
21623;BME280;10973;46.706;12.340;2023-04-27T03:56:43;87270.06;;;7.22;53.11
21623;BME280;10973;46.706;12.340;2023-04-27T03:59:11;87260.34;;;7.22;53.28
21623;BME280;10973;46.706;12.340;2023-04-27T04:01:39;87261.09;;;7.22;53.37
21623;BME280;10973;46.706;12.340;2023-04-27T04:04:08;87263.31;;;7.20;53.56
21623;BME280;10973;46.706;12.340;2023-04-27T04:06:36;87270.84;;;7.22;53.33
21623;BME280;10973;46.706;12.340;2023-04-27T04:09:03;87268.94;;;7.22;53.48
21623;BME280;10973;46.706;12.340;2023-04-27T04:11:31;87272.69;;;7.22;53.33
21623;BME280;10973;46.706;12.340;2023-04-27T04:13:59;87271.91;;;7.17;53.34
21623;BME280;10973;46.706;12.340;2023-04-27T04:16:26;87275.22;;;7.14;53.53
21623;BME280;10973;46.706;12.340;2023-04-27T04:18:54;87290.56;;;7.16;53.49
21623;BME280;10973;46.706;12.340;2023-04-27T04:21:21;87279.28;;;7.12;53.61
21623;BME280;10973;46.706;12.340;2023-04-27T04:23:49;87286.75;;;7.10;53.58
21623;BME280;10973;46.706;12.340;2023-04-27T04:26:16;87290.06;;;7.07;53.62
21623;BME280;10973;46.706;12.340;2023-04-27T04:28:43;87298.28;;;7.05;53.50
21623;BME280;10973;46.706;12.340;2023-04-27T04:31:11;87289.22;;;6.99;53.84
21623;BME280;10973;46.706;12.340;2023-04-27T04:33:38;87294.50;;;7.03;53.72
21623;BME280;10973;46.706;12.340;2023-04-27T04:36:05;87291.09;;;7.02;53.80
21623;BME280;10973;46.706;12.340;2023-04-27T04:38:33;87285.88;;;7.02;53.88
21623;BME280;10973;46.706;12.340;2023-04-27T04:41:00;87295.94;;;7.00;53.59
21623;BME280;10973;46.706;12.340;2023-04-27T04:43:27;87294.44;;;6.99;53.57
21623;BME280;10973;46.706;12.340;2023-04-27T04:45:55;87303.03;;;7.00;53.71
21623;BME280;10973;46.706;12.340;2023-04-27T04:48:22;87300.03;;;6.98;53.47
21623;BME280;10973;46.706;12.340;2023-04-27T04:50:49;87296.63;;;6.97;53.94
21623;BME280;10973;46.706;12.340;2023-04-27T04:53:16;87298.84;;;6.95;54.23
21623;BME280;10973;46.706;12.340;2023-04-27T04:55:43;87298.84;;;6.95;54.29
21623;BME280;10973;46.706;12.340;2023-04-27T04:58:11;87300.66;;;6.91;54.57
21623;BME280;10973;46.706;12.340;2023-04-27T05:00:38;87299.25;;;6.97;54.68
21623;BME280;10973;46.706;12.340;2023-04-27T05:03:05;87304.22;;;7.02;54.71
21623;BME280;10973;46.706;12.340;2023-04-27T05:05:32;87311.38;;;7.05;54.65
21623;BME280;10973;46.706;12.340;2023-04-27T05:08:00;87314.81;;;7.09;54.20
21623;BME280;10973;46.706;12.340;2023-04-27T05:10:27;87314.13;;;7.12;54.33
21623;BME280;10973;46.706;12.340;2023-04-27T05:12:54;87318.19;;;7.10;54.43
21623;BME280;10973;46.706;12.340;2023-04-27T05:15:22;87308.16;;;7.15;54.13
21623;BME280;10973;46.706;12.340;2023-04-27T05:17:49;87299.47;;;7.11;54.43
21623;BME280;10973;46.706;12.340;2023-04-27T05:20:16;87309.28;;;7.14;54.32
21623;BME280;10973;46.706;12.340;2023-04-27T05:22:44;87311.50;;;7.12;54.66
21623;BME280;10973;46.706;12.340;2023-04-27T05:25:11;87319.75;;;7.14;54.51
21623;BME280;10973;46.706;12.340;2023-04-27T05:27:38;87319.47;;;7.19;54.58
21623;BME280;10973;46.706;12.340;2023-04-27T05:30:07;87316.56;;;7.25;54.50
21623;BME280;10973;46.706;12.340;2023-04-27T05:32:34;87320.75;;;7.29;54.61
21623;BME280;10973;46.706;12.340;2023-04-27T05:35:02;87318.16;;;7.33;54.71
21623;BME280;10973;46.706;12.340;2023-04-27T05:37:30;87314.19;;;7.42;54.36
21623;BME280;10973;46.706;12.340;2023-04-27T05:39:57;87326.25;;;7.47;54.90
21623;BME280;10973;46.706;12.340;2023-04-27T05:42:24;87310.56;;;7.50;54.84
21623;BME280;10973;46.706;12.340;2023-04-27T05:44:52;87313.63;;;7.56;54.87
21623;BME280;10973;46.706;12.340;2023-04-27T05:47:19;87313.75;;;7.63;55.04
21623;BME280;10973;46.706;12.340;2023-04-27T05:49:51;87316.03;;;7.68;54.68
21623;BME280;10973;46.706;12.340;2023-04-27T05:52:19;87316.91;;;7.75;54.39
21623;BME280;10973;46.706;12.340;2023-04-27T05:54:48;87337.97;;;7.82;54.17
21623;BME280;10973;46.706;12.340;2023-04-27T05:57:16;87329.50;;;7.93;54.41
21623;BME280;10973;46.706;12.340;2023-04-27T05:59:43;87337.88;;;8.02;54.10
21623;BME280;10973;46.706;12.340;2023-04-27T06:02:11;87336.84;;;8.10;53.87
21623;BME280;10973;46.706;12.340;2023-04-27T06:04:38;87329.38;;;8.12;53.78
21623;BME280;10973;46.706;12.340;2023-04-27T06:07:13;87336.47;;;8.11;53.80
21623;BME280;10973;46.706;12.340;2023-04-27T06:09:42;87335.00;;;8.14;53.64
21623;BME280;10973;46.706;12.340;2023-04-27T06:12:09;87329.09;;;8.20;53.54
21623;BME280;10973;46.706;12.340;2023-04-27T06:14:36;87327.63;;;8.23;53.53
21623;BME280;10973;46.706;12.340;2023-04-27T06:17:04;87336.25;;;8.23;53.62
21623;BME280;10973;46.706;12.340;2023-04-27T06:19:32;87338.69;;;8.35;53.16
21623;BME280;10973;46.706;12.340;2023-04-27T06:21:59;87339.13;;;8.41;53.05
21623;BME280;10973;46.706;12.340;2023-04-27T06:24:26;87338.13;;;8.52;52.71
21623;BME280;10973;46.706;12.340;2023-04-27T06:26:53;87327.34;;;8.61;52.63
21623;BME280;10973;46.706;12.340;2023-04-27T06:29:21;87332.34;;;8.70;52.41
21623;BME280;10973;46.706;12.340;2023-04-27T06:31:48;87331.34;;;8.81;51.96
21623;BME280;10973;46.706;12.340;2023-04-27T06:34:15;87331.03;;;8.90;51.54
21623;BME280;10973;46.706;12.340;2023-04-27T06:36:42;87331.84;;;8.97;51.75
21623;BME280;10973;46.706;12.340;2023-04-27T06:39:10;87327.41;;;9.05;51.41
21623;BME280;10973;46.706;12.340;2023-04-27T06:41:37;87322.59;;;9.10;51.01
21623;BME280;10973;46.706;12.340;2023-04-27T06:44:04;87323.41;;;9.18;50.80
21623;BME280;10973;46.706;12.340;2023-04-27T06:46:32;87332.81;;;9.19;50.81
21623;BME280;10973;46.706;12.340;2023-04-27T06:48:59;87324.59;;;9.27;50.03
21623;BME280;10973;46.706;12.340;2023-04-27T06:51:27;87325.44;;;9.35;49.49
21623;BME280;10973;46.706;12.340;2023-04-27T06:53:54;87316.78;;;9.34;49.57
21623;BME280;10973;46.706;12.340;2023-04-27T06:56:21;87314.28;;;9.49;49.37
21623;BME280;10973;46.706;12.340;2023-04-27T06:58:48;87321.00;;;9.46;49.47
21623;BME280;10973;46.706;12.340;2023-04-27T07:01:16;87312.78;;;9.51;49.64
21623;BME280;10973;46.706;12.340;2023-04-27T07:03:43;87312.72;;;9.44;49.26
21623;BME280;10973;46.706;12.340;2023-04-27T07:06:10;87317.34;;;9.58;48.84
21623;BME280;10973;46.706;12.340;2023-04-27T07:08:38;87316.63;;;9.64;48.64
21623;BME280;10973;46.706;12.340;2023-04-27T07:11:05;87320.47;;;9.74;48.79
21623;BME280;10973;46.706;12.340;2023-04-27T07:13:32;87314.50;;;9.80;47.72
21623;BME280;10973;46.706;12.340;2023-04-27T07:15:59;87311.91;;;9.91;47.21
21623;BME280;10973;46.706;12.340;2023-04-27T07:18:27;87301.81;;;9.96;47.32
21623;BME280;10973;46.706;12.340;2023-04-27T07:20:54;87301.81;;;9.96;46.88
21623;BME280;10973;46.706;12.340;2023-04-27T07:23:22;87297.34;;;10.07;46.95
21623;BME280;10973;46.706;12.340;2023-04-27T07:25:50;87296.28;;;10.12;46.77
21623;BME280;10973;46.706;12.340;2023-04-27T07:28:17;87292.47;;;10.10;46.10
21623;BME280;10973;46.706;12.340;2023-04-27T07:30:45;87291.03;;;10.16;45.55
21623;BME280;10973;46.706;12.340;2023-04-27T07:33:12;87291.81;;;10.23;45.41
21623;BME280;10973;46.706;12.340;2023-04-27T07:35:39;87294.44;;;10.27;45.47
21623;BME280;10973;46.706;12.340;2023-04-27T07:38:07;87298.22;;;10.26;45.12
21623;BME280;10973;46.706;12.340;2023-04-27T07:40:34;87290.00;;;10.38;45.32
21623;BME280;10973;46.706;12.340;2023-04-27T07:43:01;87296.03;;;10.45;45.07
21623;BME280;10973;46.706;12.340;2023-04-27T07:45:29;87292.31;;;10.57;44.86
21623;BME280;10973;46.706;12.340;2023-04-27T07:47:58;87292.31;;;10.57;44.87
21623;BME280;10973;46.706;12.340;2023-04-27T07:50:27;87293.13;;;10.64;45.48
21623;BME280;10973;46.706;12.340;2023-04-27T07:52:55;87295.41;;;10.77;44.85
21623;BME280;10973;46.706;12.340;2023-04-27T07:55:24;87298.03;;;10.73;44.49
21623;BME280;10973;46.706;12.340;2023-04-27T07:57:53;87288.25;;;10.77;43.87
21623;BME280;10973;46.706;12.340;2023-04-27T08:00:21;87292.75;;;10.73;44.27
21623;BME280;10973;46.706;12.340;2023-04-27T08:02:51;87291.25;;;10.79;43.89
21623;BME280;10973;46.706;12.340;2023-04-27T08:05:20;87291.66;;;10.81;43.81
21623;BME280;10973;46.706;12.340;2023-04-27T08:07:48;87294.69;;;10.83;42.98
21623;BME280;10973;46.706;12.340;2023-04-27T08:10:16;87283.75;;;10.88;43.04
21623;BME280;10973;46.706;12.340;2023-04-27T08:12:43;87281.13;;;10.92;43.36
21623;BME280;10973;46.706;12.340;2023-04-27T08:15:10;87283.78;;;10.99;42.84
21623;BME280;10973;46.706;12.340;2023-04-27T08:17:38;87272.88;;;11.11;43.22
21623;BME280;10973;46.706;12.340;2023-04-27T08:20:07;87283.44;;;11.14;43.52
21623;BME280;10973;46.706;12.340;2023-04-27T08:22:35;87281.91;;;11.10;42.60
21623;BME280;10973;46.706;12.340;2023-04-27T08:25:02;87287.59;;;11.19;42.46
21623;BME280;10973;46.706;12.340;2023-04-27T08:27:30;87287.94;;;11.24;43.26
21623;BME280;10973;46.706;12.340;2023-04-27T08:29:57;87284.94;;;11.29;43.67
21623;BME280;10973;46.706;12.340;2023-04-27T08:32:25;87284.59;;;11.38;41.92
21623;BME280;10973;46.706;12.340;2023-04-27T08:34:52;87287.22;;;11.52;41.31
21623;BME280;10973;46.706;12.340;2023-04-27T08:37:19;87283.44;;;11.57;41.67
21623;BME280;10973;46.706;12.340;2023-04-27T08:39:47;87281.59;;;11.75;41.92
21623;BME280;10973;46.706;12.340;2023-04-27T08:42:14;87281.97;;;11.80;41.07
21623;BME280;10973;46.706;12.340;2023-04-27T08:44:43;87273.66;;;11.89;41.66
21623;BME280;10973;46.706;12.340;2023-04-27T08:47:11;87283.44;;;11.88;41.08
21623;BME280;10973;46.706;12.340;2023-04-27T08:49:38;87283.44;;;11.95;41.49
21623;BME280;10973;46.706;12.340;2023-04-27T08:52:16;87271.38;;;12.01;40.23
21623;BME280;10973;46.706;12.340;2023-04-27T08:54:43;87273.63;;;11.99;40.79
21623;BME280;10973;46.706;12.340;2023-04-27T08:57:13;87274.00;;;11.98;40.94
21623;BME280;10973;46.706;12.340;2023-04-27T08:59:41;87270.59;;;12.04;39.85
21623;BME280;10973;46.706;12.340;2023-04-27T09:02:21;87266.41;;;12.21;39.47
21623;BME280;10973;46.706;12.340;2023-04-27T09:04:48;87271.31;;;12.23;39.18
21623;BME280;10973;46.706;12.340;2023-04-27T09:07:17;87260.72;;;12.37;39.13
21623;BME280;10973;46.706;12.340;2023-04-27T09:09:44;87258.78;;;12.48;39.20
21623;BME280;10973;46.706;12.340;2023-04-27T09:12:20;87258.34;;;12.67;39.26
21623;BME280;10973;46.706;12.340;2023-04-27T09:15:00;87264.31;;;12.74;40.05
21623;BME280;10973;46.706;12.340;2023-04-27T09:17:28;87259.00;;;12.85;38.79
21623;BME280;10973;46.706;12.340;2023-04-27T09:20:09;87251.41;;;12.94;39.14
21623;BME280;10973;46.706;12.340;2023-04-27T09:22:50;87254.00;;;13.01;38.98
21623;BME280;10973;46.706;12.340;2023-04-27T09:25:32;87262.31;;;13.07;37.71
21623;BME280;10973;46.706;12.340;2023-04-27T09:28:00;87257.41;;;13.05;36.78
21623;BME280;10973;46.706;12.340;2023-04-27T09:30:28;87249.44;;;13.12;37.18
21623;BME280;10973;46.706;12.340;2023-04-27T09:32:59;87248.59;;;13.26;37.89
21623;BME280;10973;46.706;12.340;2023-04-27T09:35:31;87250.44;;;13.29;37.59
21623;BME280;10973;46.706;12.340;2023-04-27T09:37:59;87250.00;;;13.41;37.38
21623;BME280;10973;46.706;12.340;2023-04-27T09:40:28;87249.22;;;13.44;36.96
21623;BME280;10973;46.706;12.340;2023-04-27T09:42:59;87245.72;;;13.54;37.04
21623;BME280;10973;46.706;12.340;2023-04-27T09:45:27;87236.63;;;13.58;35.85
21623;BME280;10973;46.706;12.340;2023-04-27T09:47:54;87248.38;;;13.57;35.74
21623;BME280;10973;46.706;12.340;2023-04-27T09:50:22;87247.94;;;13.63;36.14
21623;BME280;10973;46.706;12.340;2023-04-27T09:52:49;87257.78;;;13.62;36.55
21623;BME280;10973;46.706;12.340;2023-04-27T09:59:13;87242.19;;;13.71;36.28
21623;BME280;10973;46.706;12.340;2023-04-27T10:01:53;87247.03;;;13.80;35.89
21623;BME280;10973;46.706;12.340;2023-04-27T10:07:16;87245.91;;;13.81;34.66
21623;BME280;10973;46.706;12.340;2023-04-27T10:09:49;87240.44;;;13.98;35.00
21623;BME280;10973;46.706;12.340;2023-04-27T10:12:25;87244.97;;;14.01;35.71
21623;BME280;10973;46.706;12.340;2023-04-27T10:14:57;87253.00;;;13.91;34.19
21623;BME280;10973;46.706;12.340;2023-04-27T10:17:33;87250.44;;;13.80;34.00
21623;BME280;10973;46.706;12.340;2023-04-27T10:20:04;87244.72;;;13.85;33.92
21623;BME280;10973;46.706;12.340;2023-04-27T10:22:46;87243.88;;;13.95;34.40
21623;BME280;10973;46.706;12.340;2023-04-27T10:25:24;87238.97;;;13.94;33.70
21623;BME280;10973;46.706;12.340;2023-04-27T10:27:58;87238.44;;;14.09;33.22
21623;BME280;10973;46.706;12.340;2023-04-27T10:30:32;87232.59;;;14.25;33.88
21623;BME280;10973;46.706;12.340;2023-04-27T10:33:10;87230.19;;;14.41;34.11
21623;BME280;10973;46.706;12.340;2023-04-27T10:35:41;87227.41;;;14.52;33.86
21623;BME280;10973;46.706;12.340;2023-04-27T10:38:15;87224.31;;;14.60;32.73
21623;BME280;10973;46.706;12.340;2023-04-27T10:40:58;87225.41;;;14.63;32.37
21623;BME280;10973;46.706;12.340;2023-04-27T10:43:29;87217.25;;;14.77;32.74
21623;BME280;10973;46.706;12.340;2023-04-27T10:46:14;87211.84;;;14.87;32.47
21623;BME280;10973;46.706;12.340;2023-04-27T10:48:42;87217.09;;;14.91;32.13
21623;BME280;10973;46.706;12.340;2023-04-27T10:51:15;87216.59;;;14.99;31.35
21623;BME280;10973;46.706;12.340;2023-04-27T10:53:43;87213.50;;;15.05;31.24
21623;BME280;10973;46.706;12.340;2023-04-27T10:56:15;87224.03;;;15.12;30.86
21623;BME280;10973;46.706;12.340;2023-04-27T10:58:42;87208.44;;;15.14;29.56
21623;BME280;10973;46.706;12.340;2023-04-27T11:01:25;87208.19;;;15.31;30.40
21623;BME280;10973;46.706;12.340;2023-04-27T11:04:01;87205.84;;;15.37;29.46
21623;BME280;10973;46.706;12.340;2023-04-27T11:06:29;87199.84;;;15.33;29.42
21623;BME280;10973;46.706;12.340;2023-04-27T11:08:58;87199.66;;;15.43;29.68
21623;BME280;10973;46.706;12.340;2023-04-27T11:11:25;87201.03;;;15.55;29.95
21623;BME280;10973;46.706;12.340;2023-04-27T11:13:53;87201.69;;;15.62;30.04
21623;BME280;10973;46.706;12.340;2023-04-27T11:16:20;87197.94;;;15.60;29.40
21623;BME280;10973;46.706;12.340;2023-04-27T11:18:49;87200.94;;;15.62;29.17
21623;BME280;10973;46.706;12.340;2023-04-27T11:21:21;87202.41;;;15.63;29.15
21623;BME280;10973;46.706;12.340;2023-04-27T11:23:48;87207.28;;;15.68;29.01
21623;BME280;10973;46.706;12.340;2023-04-27T11:26:21;87213.00;;;15.66;29.25
21623;BME280;10973;46.706;12.340;2023-04-27T11:29:04;87204.41;;;16.05;28.96
21623;BME280;10973;46.706;12.340;2023-04-27T11:31:47;87211.81;;;16.60;28.06
21623;BME280;10973;46.706;12.340;2023-04-27T11:34:22;87205.28;;;17.00;27.67
21623;BME280;10973;46.706;12.340;2023-04-27T11:37:01;87210.63;;;17.36;26.52
21623;BME280;10973;46.706;12.340;2023-04-27T11:39:44;87213.78;;;17.67;25.06
21623;BME280;10973;46.706;12.340;2023-04-27T11:42:24;87199.03;;;17.78;25.67
21623;BME280;10973;46.706;12.340;2023-04-27T11:45:03;87207.38;;;17.64;25.33
21623;BME280;10973;46.706;12.340;2023-04-27T11:47:33;87213.44;;;17.81;26.30
21623;BME280;10973;46.706;12.340;2023-04-27T11:50:05;87195.34;;;18.21;26.35
21623;BME280;10973;46.706;12.340;2023-04-27T11:52:35;87203.72;;;18.35;24.17
21623;BME280;10973;46.706;12.340;2023-04-27T11:55:03;87220.84;;;18.22;24.41
21623;BME280;10973;46.706;12.340;2023-04-27T11:57:34;87212.03;;;17.93;24.40
21623;BME280;10973;46.706;12.340;2023-04-27T12:00:04;87213.19;;;17.75;25.04
21623;BME280;10973;46.706;12.340;2023-04-27T12:02:31;87207.75;;;17.63;23.83
21623;BME280;10973;46.706;12.340;2023-04-27T12:04:59;87195.28;;;17.76;24.02
21623;BME280;10973;46.706;12.340;2023-04-27T12:07:27;87201.38;;;17.60;24.46
21623;BME280;10973;46.706;12.340;2023-04-27T12:09:55;87203.28;;;17.40;25.24
21623;BME280;10973;46.706;12.340;2023-04-27T12:12:25;87193.72;;;17.78;25.82
21623;BME280;10973;46.706;12.340;2023-04-27T12:14:53;87193.66;;;18.27;24.52
21623;BME280;10973;46.706;12.340;2023-04-27T12:17:23;87199.22;;;18.65;23.13
21623;BME280;10973;46.706;12.340;2023-04-27T12:19:54;87203.25;;;18.85;23.06
21623;BME280;10973;46.706;12.340;2023-04-27T12:22:24;87204.16;;;18.79;21.90
21623;BME280;10973;46.706;12.340;2023-04-27T12:24:51;87206.31;;;18.55;21.97
21623;BME280;10973;46.706;12.340;2023-04-27T12:27:19;87209.94;;;18.00;23.09
21623;BME280;10973;46.706;12.340;2023-04-27T12:29:52;87210.28;;;18.18;23.60
21623;BME280;10973;46.706;12.340;2023-04-27T12:32:24;87197.88;;;18.57;23.91
21623;BME280;10973;46.706;12.340;2023-04-27T12:34:55;87191.34;;;18.74;23.48
21623;BME280;10973;46.706;12.340;2023-04-27T12:37:26;87194.81;;;18.58;24.00
21623;BME280;10973;46.706;12.340;2023-04-27T12:39:54;87202.91;;;18.55;23.85
21623;BME280;10973;46.706;12.340;2023-04-27T12:42:22;87206.16;;;18.46;23.62
21623;BME280;10973;46.706;12.340;2023-04-27T12:44:51;87206.25;;;18.26;23.45
21623;BME280;10973;46.706;12.340;2023-04-27T12:47:20;87212.50;;;18.04;23.28
21623;BME280;10973;46.706;12.340;2023-04-27T12:50:08;87213.78;;;17.83;23.99
21623;BME280;10973;46.706;12.340;2023-04-27T12:52:36;87203.03;;;17.70;24.64
21623;BME280;10973;46.706;12.340;2023-04-27T12:55:04;87207.84;;;17.59;25.00
21623;BME280;10973;46.706;12.340;2023-04-27T12:57:31;87203.91;;;17.48;24.56
21623;BME280;10973;46.706;12.340;2023-04-27T12:59:58;87199.69;;;17.66;24.69
21623;BME280;10973;46.706;12.340;2023-04-27T13:02:28;87204.59;;;17.68;25.21
21623;BME280;10973;46.706;12.340;2023-04-27T13:04:56;87204.75;;;17.61;25.59
21623;BME280;10973;46.706;12.340;2023-04-27T13:07:23;87212.91;;;17.54;25.94
21623;BME280;10973;46.706;12.340;2023-04-27T13:09:50;87200.56;;;17.44;25.02
21623;BME280;10973;46.706;12.340;2023-04-27T13:12:17;87204.97;;;17.34;25.31
21623;BME280;10973;46.706;12.340;2023-04-27T13:14:45;87217.19;;;17.32;25.67
21623;BME280;10973;46.706;12.340;2023-04-27T13:17:12;87208.19;;;17.26;24.42
21623;BME280;10973;46.706;12.340;2023-04-27T13:19:39;87209.09;;;17.19;25.56
21623;BME280;10973;46.706;12.340;2023-04-27T13:22:07;87214.16;;;17.13;25.77
21623;BME280;10973;46.706;12.340;2023-04-27T13:24:34;87217.09;;;17.19;25.54
21623;BME280;10973;46.706;12.340;2023-04-27T13:27:02;87220.84;;;17.22;25.97
21623;BME280;10973;46.706;12.340;2023-04-27T13:29:30;87221.56;;;17.22;25.68
21623;BME280;10973;46.706;12.340;2023-04-27T13:31:57;87222.19;;;17.30;25.36
21623;BME280;10973;46.706;12.340;2023-04-27T13:34:25;87221.22;;;17.40;25.72
21623;BME280;10973;46.706;12.340;2023-04-27T13:36:52;87218.59;;;17.56;24.95
21623;BME280;10973;46.706;12.340;2023-04-27T13:39:19;87213.78;;;17.67;25.77
21623;BME280;10973;46.706;12.340;2023-04-27T13:41:47;87220.19;;;17.86;24.70
21623;BME280;10973;46.706;12.340;2023-04-27T13:44:14;87209.13;;;17.71;27.36
21623;BME280;10973;46.706;12.340;2023-04-27T13:46:42;87206.94;;;17.82;28.83
21623;BME280;10973;46.706;12.340;2023-04-27T13:49:09;87208.03;;;17.68;29.42
21623;BME280;10973;46.706;12.340;2023-04-27T13:51:36;87220.19;;;17.53;30.24
21623;BME280;10973;46.706;12.340;2023-04-27T13:54:03;87224.78;;;17.49;30.38